Time;durP1;ratioP1;P1;durP2;ratioP2;P2;SDS_P1;SDS_P2;PMS_P1;PMS_P2;Temp;Humidity;BMP_temperature;BMP_pressure;BME280_temperature;BME280_humidity;BME280_pressure;Samples;Min_cycle;Max_cycle;Signal;HPM_P1;HPM_P2
2022/06/10 00:00:13;;;;;;;;;;;13.00;99.90;;;;;;5112305;28;19919;-66
2022/06/10 00:02:43;;;;;;;;;;;13.00;99.90;;;;;;5112638;28;19926;-67
2022/06/10 00:05:12;;;;;;;;;;;13.00;99.90;;;;;;5112506;27;19974;-66
2022/06/10 00:07:38;;;;;;;;;;;13.10;99.90;;;;;;5112393;27;20109;-66
2022/06/10 00:10:04;;;;;;;;;;;13.00;99.90;;;;;;5112084;28;20359;-67
2022/06/10 00:12:29;;;;;;;;;;;13.00;99.90;;;;;;5110930;28;20019;-66
2022/06/10 00:14:55;;;;;;;;;;;13.00;99.90;;;;;;5112529;28;19971;-66
2022/06/10 00:17:20;;;;;;;;;;;13.00;99.90;;;;;;5112326;28;20411;-66
2022/06/10 00:19:46;;;;;;;;;;;13.10;99.90;;;;;;5111982;28;19920;-66
2022/06/10 00:22:11;;;;;;;;;;;13.00;99.90;;;;;;5112208;28;20284;-66
2022/06/10 00:24:37;;;;;;;;;;;12.90;99.90;;;;;;5111735;28;19924;-66
2022/06/10 00:27:02;;;;;;;;;;;12.90;99.90;;;;;;5112014;28;20011;-66
2022/06/10 00:29:28;;;;;;;;;;;12.90;99.90;;;;;;5111759;28;19920;-67
2022/06/10 00:31:53;;;;;;;;;;;12.90;99.90;;;;;;5111985;28;20009;-66
2022/06/10 00:34:19;;;;;;;;;;;12.80;99.90;;;;;;5112005;28;19924;-66
2022/06/10 00:36:45;;;;;;;;;;;12.80;99.90;;;;;;5112054;28;20443;-66
2022/06/10 00:39:10;;;;;;;;;;;12.70;99.90;;;;;;5111655;28;20395;-67
2022/06/10 00:41:39;;;;;;;;;;;12.80;99.90;;;;;;5111749;28;20505;-66
2022/06/10 00:44:05;;;;;;;;;;;12.70;99.90;;;;;;5111896;28;19928;-67
2022/06/10 00:46:33;;;;;;;;;;;12.80;99.90;;;;;;5111903;28;19930;-66
2022/06/10 00:48:58;;;;;;;;;;;12.70;99.90;;;;;;5111462;28;20465;-66
2022/06/10 00:51:23;;;;;;;;;;;12.70;99.90;;;;;;5111438;28;20014;-66
2022/06/10 00:53:58;;;;;;;;;;;12.70;99.90;;;;;;5111665;28;19923;-66
2022/06/10 00:56:25;;;;;;;;;;;12.70;99.90;;;;;;5111978;28;20040;-67
2022/06/10 00:58:53;;;;;;;;;;;12.70;99.90;;;;;;5111511;28;20594;-67
2022/06/10 01:01:19;;;;;;;;;;;12.70;99.90;;;;;;5111773;28;20315;-66
2022/06/10 01:03:45;;;;;;;;;;;12.70;99.90;;;;;;5111647;28;19978;-66
2022/06/10 01:06:11;;;;;;;;;;;12.70;99.90;;;;;;5111679;28;19931;-66
2022/06/10 01:08:37;;;;;;;;;;;12.70;99.90;;;;;;5111366;28;20350;-67
2022/06/10 01:11:23;;;;;;;;;;;12.60;99.90;;;;;;5111536;28;20546;-66
2022/06/10 01:13:48;;;;;;;;;;;12.60;99.90;;;;;;5111687;28;20012;-66
2022/06/10 01:16:20;;;;;;;;;;;12.60;99.90;;;;;;5111656;28;19963;-66
2022/06/10 01:18:53;;;;;;;;;;;12.50;99.90;;;;;;5111334;28;20314;-66
2022/06/10 01:21:25;;;;;;;;;;;12.60;99.90;;;;;;5111499;28;19996;-66
2022/06/10 01:23:54;;;;;;;;;;;12.50;99.90;;;;;;5110025;28;19928;-67
2022/06/10 01:29:31;;;;;;;;;;;12.60;99.90;;;;;;5111120;28;19919;-67
2022/06/10 01:32:00;;;;;;;;;;;12.50;99.90;;;;;;5111571;28;19926;-67
2022/06/10 01:34:29;;;;;;;;;;;12.60;99.90;;;;;;5111485;28;20334;-66
2022/06/10 01:37:00;;;;;;;;;;;12.60;99.90;;;;;;5113305;28;20546;-66
2022/06/10 01:39:44;;;;;;;;;;;12.50;99.90;;;;;;5115064;28;19923;-66
2022/06/10 01:42:31;;;;;;;;;;;12.50;99.90;;;;;;5115013;28;19931;-66
2022/06/10 01:45:11;;;;;;;;;;;12.50;99.90;;;;;;5115342;28;19923;-67
2022/06/10 01:47:43;;;;;;;;;;;12.50;99.90;;;;;;5115149;28;20391;-66
2022/06/10 01:50:15;;;;;;;;;;;12.50;99.90;;;;;;5114899;28;20276;-67
2022/06/10 01:52:48;;;;;;;;;;;12.50;99.90;;;;;;5115192;28;19924;-66
2022/06/10 01:55:19;;;;;;;;;;;12.50;99.90;;;;;;5115240;28;19920;-67
2022/06/10 01:57:56;;;;;;;;;;;12.50;99.90;;;;;;5115050;27;19931;-66
2022/06/10 02:00:24;;;;;;;;;;;12.50;99.90;;;;;;5114602;28;20002;-67
2022/06/10 02:02:54;;;;;;;;;;;12.60;99.90;;;;;;5113465;28;19924;-66
2022/06/10 02:05:21;;;;;;;;;;;12.50;99.90;;;;;;5114964;28;20391;-66
2022/06/10 02:07:51;;;;;;;;;;;12.50;99.90;;;;;;5114918;28;19927;-67
2022/06/10 02:10:17;;;;;;;;;;;12.50;99.90;;;;;;5114517;28;19920;-67
2022/06/10 02:12:46;;;;;;;;;;;12.50;99.90;;;;;;5114721;28;19920;-66
2022/06/10 02:15:19;;;;;;;;;;;12.40;99.90;;;;;;5114645;28;19992;-66
2022/06/10 02:17:54;;;;;;;;;;;12.40;99.90;;;;;;5113578;28;20299;-66
2022/06/10 02:20:22;;;;;;;;;;;12.40;99.90;;;;;;5114419;28;19923;-66
2022/06/10 02:22:48;;;;;;;;;;;12.40;99.90;;;;;;5114555;28;19920;-66
2022/06/10 02:25:16;;;;;;;;;;;12.40;99.90;;;;;;5114524;28;19924;-66
2022/06/10 02:27:44;;;;;;;;;;;12.30;99.90;;;;;;5114360;28;19924;-67
2022/06/10 02:30:12;;;;;;;;;;;12.20;99.90;;;;;;5114256;28;19920;-66
2022/06/10 02:32:39;;;;;;;;;;;12.20;99.90;;;;;;5114465;28;20011;-67
2022/06/10 02:35:06;;;;;;;;;;;12.20;99.90;;;;;;5114179;28;20574;-66
2022/06/10 02:37:38;;;;;;;;;;;12.20;99.90;;;;;;5114247;28;19920;-66
2022/06/10 02:40:03;;;;;;;;;;;12.20;99.90;;;;;;5113922;28;19973;-66
2022/06/10 02:42:49;;;;;;;;;;;12.20;99.90;;;;;;5113925;28;19932;-66
2022/06/10 02:45:30;;;;;;;;;;;12.20;99.90;;;;;;5095151;28;19974;-66
2022/06/10 02:47:59;;;;;;;;;;;12.20;99.90;;;;;;5113908;28;19920;-67
2022/06/10 02:50:25;;;;;;;;;;;12.20;99.90;;;;;;5113804;28;19963;-66
2022/06/10 02:52:52;;;;;;;;;;;12.10;99.90;;;;;;5113845;28;19973;-66
2022/06/10 02:55:19;;;;;;;;;;;12.10;99.90;;;;;;5114032;28;19920;-66
2022/06/10 03:03:21;;;;;;;;;;;12.10;99.90;;;;;;5113505;28;19920;-66
2022/06/10 03:06:12;;;;;;;;;;;12.00;99.90;;;;;;5112339;28;19974;-66
2022/06/10 03:08:39;;;;;;;;;;;12.00;99.90;;;;;;5078243;28;19935;-67
2022/06/10 03:11:16;;;;;;;;;;;11.90;99.90;;;;;;5110887;28;19966;-67
2022/06/10 03:14:01;;;;;;;;;;;11.90;99.90;;;;;;5111717;28;20251;-67
2022/06/10 03:16:34;;;;;;;;;;;11.80;99.90;;;;;;5113563;28;19926;-66
2022/06/10 03:19:18;;;;;;;;;;;11.80;99.90;;;;;;5111455;28;20371;-66
2022/06/10 03:22:02;;;;;;;;;;;11.90;99.90;;;;;;5112124;28;19926;-66
2022/06/10 03:24:37;;;;;;;;;;;11.90;99.90;;;;;;5112116;28;20014;-67
2022/06/10 03:27:10;;;;;;;;;;;11.90;99.90;;;;;;5113175;28;19920;-66
2022/06/10 03:29:35;;;;;;;;;;;11.90;99.90;;;;;;5113019;28;19924;-66
2022/06/10 03:32:06;;;;;;;;;;;11.90;99.90;;;;;;5112927;28;19930;-66
2022/06/10 03:34:34;;;;;;;;;;;11.90;99.90;;;;;;5113025;28;19923;-66
2022/06/10 03:37:01;;;;;;;;;;;12.00;99.90;;;;;;5113272;28;20303;-66
2022/06/10 03:39:27;;;;;;;;;;;11.90;99.90;;;;;;5112942;28;19999;-66
2022/06/10 03:42:03;;;;;;;;;;;11.90;99.90;;;;;;5112947;28;20546;-66
2022/06/10 03:44:29;;;;;;;;;;;11.90;99.90;;;;;;5112976;28;19924;-66
2022/06/10 03:46:56;;;;;;;;;;;12.00;99.90;;;;;;5112859;28;19981;-66
2022/06/10 03:49:26;;;;;;;;;;;12.00;99.90;;;;;;5112794;28;19926;-66
2022/06/10 03:51:51;;;;;;;;;;;12.00;99.90;;;;;;5112801;28;19924;-68
2022/06/10 03:54:18;;;;;;;;;;;12.00;99.90;;;;;;5112800;28;19920;-66
2022/06/10 03:56:44;;;;;;;;;;;12.10;99.90;;;;;;5112595;28;20407;-66
2022/06/10 03:59:09;;;;;;;;;;;12.10;99.90;;;;;;5111796;28;19982;-66
2022/06/10 04:01:35;;;;;;;;;;;12.10;99.90;;;;;;5112565;28;19943;-66
2022/06/10 04:04:00;;;;;;;;;;;12.10;99.90;;;;;;5112663;28;20395;-66
2022/06/10 04:06:26;;;;;;;;;;;12.30;99.90;;;;;;5112564;28;19927;-66
2022/06/10 04:08:51;;;;;;;;;;;12.40;99.90;;;;;;5112285;28;19920;-66
2022/06/10 04:11:17;;;;;;;;;;;12.40;99.90;;;;;;5112410;28;19924;-67
2022/06/10 04:13:44;;;;;;;;;;;12.50;99.90;;;;;;5112349;28;19919;-67
2022/06/10 04:16:10;;;;;;;;;;;12.60;99.90;;;;;;5112198;28;19945;-66
2022/06/10 04:18:36;;;;;;;;;;;12.70;99.90;;;;;;5111980;28;19924;-66
2022/06/10 04:21:01;;;;;;;;;;;12.80;99.90;;;;;;5112391;28;19923;-66
2022/06/10 04:23:27;;;;;;;;;;;12.90;99.90;;;;;;5112052;28;19920;-67
2022/06/10 04:25:52;;;;;;;;;;;13.00;99.90;;;;;;5112232;28;19920;-66
2022/06/10 04:28:18;;;;;;;;;;;13.10;99.90;;;;;;5111998;28;20028;-67
2022/06/10 04:30:45;;;;;;;;;;;13.20;99.90;;;;;;5111938;28;19924;-66
2022/06/10 04:33:10;;;;;;;;;;;13.30;99.90;;;;;;5112224;28;20338;-66
2022/06/10 04:35:36;;;;;;;;;;;13.40;99.90;;;;;;5112071;28;19919;-66
2022/06/10 04:38:02;;;;;;;;;;;13.50;99.90;;;;;;5112053;28;19920;-66
2022/06/10 04:40:30;;;;;;;;;;;13.60;99.90;;;;;;5111777;28;19965;-67
2022/06/10 04:42:55;;;;;;;;;;;13.70;99.90;;;;;;5111877;28;20280;-67
2022/06/10 04:45:24;;;;;;;;;;;13.80;99.90;;;;;;5111692;28;19928;-67
2022/06/10 04:47:49;;;;;;;;;;;14.00;99.90;;;;;;5112014;28;19920;-66
2022/06/10 04:50:17;;;;;;;;;;;14.10;99.90;;;;;;5111625;28;19949;-66
2022/06/10 04:52:43;;;;;;;;;;;14.20;99.90;;;;;;5110408;28;19927;-67
2022/06/10 04:55:08;;;;;;;;;;;14.40;99.90;;;;;;5111627;28;19920;-67
2022/06/10 04:57:34;;;;;;;;;;;14.50;99.90;;;;;;5111797;28;19926;-66
2022/06/10 05:00:00;;;;;;;;;;;14.60;99.90;;;;;;5111243;28;19931;-67
2022/06/10 05:02:25;;;;;;;;;;;14.70;99.90;;;;;;5111817;28;20384;-67
2022/06/10 05:04:50;;;;;;;;;;;14.80;99.90;;;;;;5111644;28;19971;-67
2022/06/10 05:07:16;;;;;;;;;;;15.00;99.90;;;;;;5111780;28;20372;-67
2022/06/10 05:09:41;;;;;;;;;;;15.00;99.90;;;;;;5111375;28;20007;-66
2022/06/10 05:12:07;;;;;;;;;;;15.10;99.90;;;;;;5113821;28;19920;-67
2022/06/10 05:14:34;;;;;;;;;;;15.20;99.90;;;;;;5115739;28;20341;-67
2022/06/10 05:16:59;;;;;;;;;;;15.40;99.90;;;;;;5114709;28;19920;-66
2022/06/10 05:19:25;;;;;;;;;;;15.60;99.90;;;;;;5115513;28;20392;-66
2022/06/10 05:21:50;;;;;;;;;;;15.70;99.90;;;;;;5115598;28;19924;-66
2022/06/10 05:24:16;;;;;;;;;;;15.90;99.90;;;;;;5115552;28;19924;-67
2022/06/10 05:26:41;;;;;;;;;;;15.90;99.90;;;;;;5115699;28;19919;-67
2022/06/10 05:29:07;;;;;;;;;;;16.00;99.90;;;;;;5115256;28;19919;-66
2022/06/10 05:31:32;;;;;;;;;;;16.00;99.90;;;;;;5115744;28;19920;-67
2022/06/10 05:36:42;;;;;;;;;;;16.30;99.90;;;;;;5115454;28;20014;-66
2022/06/10 05:39:08;;;;;;;;;;;16.10;99.90;;;;;;5115078;28;19967;-67
2022/06/10 05:44:17;;;;;;;;;;;15.90;99.90;;;;;;5115304;28;19924;-67
2022/06/10 05:46:43;;;;;;;;;;;15.80;99.90;;;;;;5115393;28;19920;-66
2022/06/10 05:49:09;;;;;;;;;;;15.90;99.90;;;;;;5114976;28;19943;-67
2022/06/10 05:51:34;;;;;;;;;;;15.90;99.90;;;;;;5115184;28;19956;-67
2022/06/10 05:54:00;;;;;;;;;;;15.70;99.90;;;;;;5114785;28;19967;-67
2022/06/10 05:56:26;;;;;;;;;;;15.70;99.90;;;;;;5115266;28;20549;-66
2022/06/10 05:58:51;;;;;;;;;;;15.60;99.90;;;;;;5114771;28;19920;-67
2022/06/10 06:01:16;;;;;;;;;;;15.60;99.90;;;;;;5115047;28;19924;-67
2022/06/10 06:03:42;;;;;;;;;;;15.50;99.90;;;;;;5114750;28;19931;-67
2022/06/10 06:06:08;;;;;;;;;;;15.60;99.90;;;;;;5114809;28;19963;-66
2022/06/10 06:08:35;;;;;;;;;;;15.50;99.90;;;;;;5114509;28;19920;-66
2022/06/10 06:11:00;;;;;;;;;;;15.50;99.90;;;;;;5115151;28;19950;-66
2022/06/10 06:13:25;;;;;;;;;;;15.40;99.90;;;;;;5114873;28;20516;-66
2022/06/10 06:15:51;;;;;;;;;;;15.40;99.90;;;;;;5114880;28;19927;-66
2022/06/10 06:18:16;;;;;;;;;;;15.40;99.90;;;;;;5114673;28;20299;-67
2022/06/10 06:20:42;;;;;;;;;;;15.50;99.90;;;;;;5114620;28;19920;-66
2022/06/10 06:23:08;;;;;;;;;;;15.50;99.90;;;;;;5113921;28;19927;-67
2022/06/10 06:25:34;;;;;;;;;;;15.60;99.90;;;;;;5114475;28;20363;-67
2022/06/10 06:27:59;;;;;;;;;;;15.60;99.90;;;;;;5114595;28;19962;-67
2022/06/10 06:30:32;;;;;;;;;;;15.50;99.90;;;;;;5114332;28;19924;-66
2022/06/10 06:32:58;;;;;;;;;;;15.60;99.90;;;;;;5114347;28;19958;-67
2022/06/10 06:35:24;;;;;;;;;;;15.60;99.90;;;;;;5114314;28;19920;-67
2022/06/10 06:37:49;;;;;;;;;;;15.70;99.90;;;;;;5114144;28;19930;-66
2022/06/10 06:40:15;;;;;;;;;;;15.90;99.90;;;;;;5114088;28;19965;-67
2022/06/10 06:42:40;;;;;;;;;;;16.10;99.90;;;;;;5114206;28;20418;-67
2022/06/10 06:45:06;;;;;;;;;;;16.10;99.90;;;;;;5114018;28;19931;-67
2022/06/10 06:47:32;;;;;;;;;;;16.10;99.90;;;;;;5112733;28;19973;-67
2022/06/10 06:49:58;;;;;;;;;;;16.10;99.90;;;;;;5113684;28;20413;-67
2022/06/10 06:52:23;;;;;;;;;;;16.10;99.90;;;;;;5113790;28;20045;-67
2022/06/10 06:54:49;;;;;;;;;;;16.00;99.90;;;;;;5114107;28;19919;-67
2022/06/10 06:57:14;;;;;;;;;;;16.00;99.90;;;;;;5114073;28;19982;-66
2022/06/10 06:59:40;;;;;;;;;;;15.90;99.90;;;;;;5113484;28;19927;-67
2022/06/10 07:02:05;;;;;;;;;;;15.80;99.90;;;;;;5113713;28;20430;-67
2022/06/10 07:04:31;;;;;;;;;;;15.80;99.90;;;;;;5113597;28;20437;-67
2022/06/10 07:06:56;;;;;;;;;;;15.80;99.90;;;;;;5113580;28;20034;-67
2022/06/10 07:09:22;;;;;;;;;;;15.70;99.90;;;;;;5113583;28;19924;-66
2022/06/10 07:11:47;;;;;;;;;;;15.70;99.90;;;;;;5113675;28;20414;-67
2022/06/10 07:14:13;;;;;;;;;;;15.80;99.90;;;;;;5113655;28;20018;-67
2022/06/10 07:16:39;;;;;;;;;;;15.80;99.90;;;;;;5113596;28;19926;-67
2022/06/10 07:19:06;;;;;;;;;;;15.80;99.90;;;;;;5113308;28;20005;-67
2022/06/10 07:21:32;;;;;;;;;;;15.80;99.90;;;;;;5113267;28;20404;-67
2022/06/10 07:23:57;;;;;;;;;;;15.80;99.90;;;;;;5113479;28;19982;-66
2022/06/10 07:26:23;;;;;;;;;;;15.70;99.90;;;;;;5113469;28;20272;-67
2022/06/10 07:28:49;;;;;;;;;;;15.70;99.90;;;;;;5113119;28;19927;-67
2022/06/10 07:31:14;;;;;;;;;;;15.80;99.90;;;;;;5113351;28;19927;-66
2022/06/10 07:33:40;;;;;;;;;;;15.90;99.90;;;;;;5112369;28;19928;-66
2022/06/10 07:36:06;;;;;;;;;;;15.90;99.90;;;;;;5112813;28;19920;-67
2022/06/10 07:38:32;;;;;;;;;;;16.00;99.90;;;;;;5113020;28;19920;-67
2022/06/10 07:43:42;;;;;;;;;;;16.20;99.90;;;;;;5112947;28;20019;-66
2022/06/10 07:46:09;;;;;;;;;;;16.30;99.90;;;;;;5113382;28;20002;-66
2022/06/10 07:48:35;;;;;;;;;;;16.30;99.90;;;;;;5112602;28;19985;-66
2022/06/10 07:51:00;;;;;;;;;;;16.50;99.90;;;;;;5112917;28;19970;-67
2022/06/10 07:53:30;;;;;;;;;;;16.60;99.90;;;;;;5113016;28;19926;-66
2022/06/10 07:55:56;;;;;;;;;;;16.70;99.90;;;;;;5113059;28;19931;-66
2022/06/10 07:58:24;;;;;;;;;;;16.80;99.90;;;;;;5112794;28;19924;-67
2022/06/10 08:00:51;;;;;;;;;;;16.70;99.90;;;;;;5111395;28;20333;-67
2022/06/10 08:03:16;;;;;;;;;;;16.80;99.90;;;;;;5112534;28;20398;-68
2022/06/10 08:05:42;;;;;;;;;;;16.80;99.90;;;;;;5112617;28;19924;-67
2022/06/10 08:08:08;;;;;;;;;;;16.80;99.90;;;;;;5112657;28;19919;-68
2022/06/10 08:10:35;;;;;;;;;;;16.90;99.90;;;;;;5112360;28;19919;-69
2022/06/10 08:13:01;;;;;;;;;;;16.90;99.90;;;;;;5112475;28;19934;-68
2022/06/10 08:15:27;;;;;;;;;;;16.90;99.90;;;;;;5112359;28;19920;-67
2022/06/10 08:17:52;;;;;;;;;;;17.00;99.90;;;;;;5111209;28;20019;-67
2022/06/10 08:20:23;;;;;;;;;;;17.00;99.90;;;;;;5112268;28;19919;-67
2022/06/10 08:22:49;;;;;;;;;;;17.00;99.90;;;;;;5112465;28;19920;-67
2022/06/10 08:25:14;;;;;;;;;;;17.00;99.90;;;;;;5112185;28;19923;-67
2022/06/10 08:27:40;;;;;;;;;;;17.00;99.90;;;;;;5112230;28;19924;-67
2022/06/10 08:30:07;;;;;;;;;;;17.00;99.90;;;;;;5111748;28;19923;-67
2022/06/10 08:32:33;;;;;;;;;;;17.00;99.90;;;;;;5111925;28;19930;-67
2022/06/10 08:34:58;;;;;;;;;;;17.00;99.90;;;;;;5112159;28;19920;-67
2022/06/10 08:37:24;;;;;;;;;;;17.00;99.90;;;;;;5112238;28;19920;-67
2022/06/10 08:39:49;;;;;;;;;;;17.00;99.90;;;;;;5111776;28;20411;-67
2022/06/10 08:42:23;;;;;;;;;;;17.10;99.90;;;;;;5111930;28;19924;-67
2022/06/10 08:44:52;;;;;;;;;;;17.30;99.90;;;;;;5111565;28;19977;-67
2022/06/10 08:47:44;;;;;;;;;;;17.30;99.90;;;;;;5112170;28;19924;-67
2022/06/10 08:50:18;;;;;;;;;;;17.40;99.90;;;;;;5110271;28;20049;-67
2022/06/10 08:52:50;;;;;;;;;;;17.40;99.90;;;;;;5111861;28;20015;-67
2022/06/10 08:55:25;;;;;;;;;;;17.40;99.90;;;;;;5111743;28;20333;-67
2022/06/10 08:57:51;;;;;;;;;;;17.40;99.90;;;;;;5111963;28;19976;-67
2022/06/10 09:00:21;;;;;;;;;;;17.40;99.90;;;;;;5111297;28;19998;-67
2022/06/10 09:02:53;;;;;;;;;;;17.40;99.90;;;;;;5111765;28;19959;-67
2022/06/10 09:05:25;;;;;;;;;;;17.40;99.90;;;;;;5111573;28;19924;-67
2022/06/10 09:07:53;;;;;;;;;;;17.50;99.90;;;;;;5111695;28;19927;-67
2022/06/10 09:10:19;;;;;;;;;;;17.40;99.90;;;;;;5111557;28;19920;-67
2022/06/10 09:13:07;;;;;;;;;;;17.50;99.90;;;;;;5111560;28;19924;-67
2022/06/10 09:15:38;;;;;;;;;;;17.50;99.90;;;;;;5111747;28;19920;-67
2022/06/10 09:18:11;;;;;;;;;;;17.60;99.90;;;;;;5111475;28;20442;-67
2022/06/10 09:20:42;;;;;;;;;;;17.70;99.90;;;;;;5111599;28;19927;-67
2022/06/10 09:23:15;;;;;;;;;;;17.80;99.90;;;;;;5110085;28;20061;-67
2022/06/10 09:25:42;;;;;;;;;;;17.80;99.90;;;;;;5111729;28;20365;-67
2022/06/10 09:28:08;;;;;;;;;;;17.80;99.90;;;;;;5111538;28;19934;-68
2022/06/10 09:30:47;;;;;;;;;;;17.70;99.90;;;;;;5111157;28;19924;-67
2022/06/10 09:33:22;;;;;;;;;;;17.70;99.90;;;;;;5111634;28;19920;-67
2022/06/10 09:35:55;;;;;;;;;;;17.60;99.90;;;;;;5111385;28;20392;-67
2022/06/10 09:38:23;;;;;;;;;;;17.60;99.90;;;;;;5111420;28;20388;-67
2022/06/10 09:41:06;;;;;;;;;;;17.70;99.90;;;;;;5111314;28;20303;-67
2022/06/10 09:43:33;;;;;;;;;;;17.70;99.90;;;;;;5111433;28;19987;-67
2022/06/10 09:46:01;;;;;;;;;;;17.80;99.90;;;;;;5111398;28;19920;-67
2022/06/10 09:48:33;;;;;;;;;;;17.80;99.90;;;;;;5111262;28;19954;-67
2022/06/10 09:51:12;;;;;;;;;;;17.90;99.90;;;;;;5111414;28;19920;-67
2022/06/10 09:54:07;;;;;;;;;;;17.90;99.90;;;;;;5111208;28;19920;-67
2022/06/10 09:56:51;;;;;;;;;;;17.90;99.90;;;;;;5093274;28;20431;-67
2022/06/10 09:59:22;;;;;;;;;;;17.90;99.90;;;;;;5114657;28;20007;-67
2022/06/10 10:01:48;;;;;;;;;;;17.90;99.90;;;;;;5114938;27;19927;-67
2022/06/10 10:04:16;;;;;;;;;;;17.90;99.90;;;;;;5114660;28;20543;-67
2022/06/10 10:06:46;;;;;;;;;;;17.80;99.90;;;;;;5114777;28;19923;-67
2022/06/10 10:09:11;;;;;;;;;;;17.80;99.90;;;;;;5114481;28;20052;-67
2022/06/10 10:11:55;;;;;;;;;;;17.90;99.90;;;;;;5114810;28;19980;-67
2022/06/10 10:14:27;;;;;;;;;;;18.00;99.90;;;;;;5114615;28;19973;-67
2022/06/10 10:17:03;;;;;;;;;;;18.20;99.90;;;;;;5114595;28;19927;-67
2022/06/10 10:19:38;;;;;;;;;;;18.30;99.90;;;;;;5114545;28;19920;-67
2022/06/10 10:22:16;;;;;;;;;;;18.40;99.90;;;;;;5114627;28;19919;-67
2022/06/10 10:24:43;;;;;;;;;;;18.50;99.90;;;;;;5114435;28;19928;-67
2022/06/10 10:27:10;;;;;;;;;;;18.60;99.90;;;;;;5114664;28;19926;-67
2022/06/10 10:29:37;;;;;;;;;;;18.80;99.90;;;;;;5114078;28;20458;-67
2022/06/10 10:32:19;;;;;;;;;;;18.90;99.90;;;;;;5114533;28;19951;-67
2022/06/10 10:34:47;;;;;;;;;;;18.90;99.90;;;;;;5114350;28;19927;-67
2022/06/10 10:37:27;;;;;;;;;;;19.00;99.90;;;;;;5114210;28;19959;-67
2022/06/10 10:39:55;;;;;;;;;;;19.10;99.90;;;;;;5114152;28;20007;-67
2022/06/10 10:42:22;;;;;;;;;;;19.30;99.90;;;;;;5114159;28;19950;-67
2022/06/10 10:45:07;;;;;;;;;;;19.50;99.90;;;;;;5114149;28;19924;-67
2022/06/10 10:47:35;;;;;;;;;;;19.60;99.90;;;;;;5114148;28;20331;-67
2022/06/10 10:50:03;;;;;;;;;;;19.60;99.90;;;;;;5112411;28;19928;-67
2022/06/10 10:52:37;;;;;;;;;;;19.70;99.90;;;;;;5113931;28;19941;-67
2022/06/10 10:55:21;;;;;;;;;;;19.90;99.90;;;;;;5114130;28;20384;-67
2022/06/10 10:57:57;;;;;;;;;;;19.80;99.90;;;;;;5113964;28;19934;-67
2022/06/10 11:00:30;;;;;;;;;;;19.90;99.90;;;;;;5113436;28;19985;-67
2022/06/10 11:02:57;;;;;;;;;;;19.80;99.90;;;;;;5113841;28;19927;-67
2022/06/10 11:05:25;;;;;;;;;;;20.00;99.90;;;;;;5113799;27;19930;-68
2022/06/10 11:08:05;;;;;;;;;;;20.10;99.90;;;;;;5113687;28;20015;-67
2022/06/10 11:10:31;;;;;;;;;;;20.20;99.90;;;;;;5113311;28;20018;-67
2022/06/10 11:13:00;;;;;;;;;;;20.30;99.90;;;;;;5113514;28;20339;-67
2022/06/10 11:15:27;;;;;;;;;;;20.20;99.90;;;;;;5113773;28;19931;-67
2022/06/10 11:17:53;;;;;;;;;;;20.10;99.90;;;;;;5113669;28;20291;-67
2022/06/10 11:20:24;;;;;;;;;;;20.20;99.90;;;;;;5113274;28;20345;-67
2022/06/10 11:22:50;;;;;;;;;;;20.20;99.90;;;;;;5113276;28;19928;-67
2022/06/10 11:25:22;;;;;;;;;;;20.20;99.90;;;;;;5113183;28;19924;-67
2022/06/10 11:27:47;;;;;;;;;;;20.30;99.90;;;;;;5113543;28;19964;-67
2022/06/10 11:30:13;;;;;;;;;;;20.40;99.90;;;;;;5112997;28;20006;-67
2022/06/10 11:32:47;;;;;;;;;;;20.50;99.90;;;;;;5112058;28;19970;-67
2022/06/10 11:35:31;;;;;;;;;;;20.60;99.90;;;;;;5113001;28;19919;-67
2022/06/10 11:38:17;;;;;;;;;;;20.60;99.90;;;;;;5112987;28;19919;-67
2022/06/10 11:40:46;;;;;;;;;;;20.70;99.90;;;;;;5112323;28;19973;-67
2022/06/10 11:43:14;;;;;;;;;;;20.70;99.90;;;;;;5113016;28;19927;-67
2022/06/10 11:45:44;;;;;;;;;;;20.60;99.90;;;;;;5112885;28;20010;-67
2022/06/10 11:48:13;;;;;;;;;;;20.70;99.90;;;;;;5112823;28;19927;-67
2022/06/10 11:50:57;;;;;;;;;;;20.80;99.90;;;;;;5112605;28;19924;-67
2022/06/10 11:53:58;;;;;;;;;;;20.70;99.90;;;;;;5112861;28;19955;-67
2022/06/10 12:02:01;;;;;;;;;;;20.70;99.90;;;;;;5112611;28;19927;-67
2022/06/10 12:04:30;;;;;;;;;;;20.60;99.90;;;;;;5112491;28;19923;-67
2022/06/10 12:07:00;;;;;;;;;;;20.50;99.90;;;;;;5111834;28;20423;-67
2022/06/10 12:09:47;;;;;;;;;;;20.40;99.90;;;;;;5112356;28;19928;-67
2022/06/10 12:12:15;;;;;;;;;;;20.40;99.90;;;;;;5112362;28;19930;-67
2022/06/10 12:14:46;;;;;;;;;;;20.40;99.90;;;;;;5112518;28;19924;-67
2022/06/10 12:17:19;;;;;;;;;;;20.30;99.90;;;;;;5111129;28;19926;-67
2022/06/10 12:19:50;;;;;;;;;;;20.30;99.90;;;;;;5111667;28;20388;-67
2022/06/10 12:22:16;;;;;;;;;;;20.40;99.90;;;;;;5112376;28;20006;-67
2022/06/10 12:24:44;;;;;;;;;;;20.40;99.90;;;;;;5112187;28;20435;-67
2022/06/10 12:27:15;;;;;;;;;;;20.50;99.90;;;;;;5112301;28;19985;-67
2022/06/10 12:30:02;;;;;;;;;;;20.60;99.90;;;;;;5110453;28;19928;-67
2022/06/10 12:32:30;;;;;;;;;;;20.70;99.90;;;;;;5112197;28;20002;-67
2022/06/10 12:35:05;;;;;;;;;;;20.60;99.90;;;;;;5112106;28;19973;-67
2022/06/10 12:37:35;;;;;;;;;;;20.60;99.90;;;;;;5112154;27;19924;-67
2022/06/10 12:40:10;;;;;;;;;;;20.60;99.90;;;;;;5110720;28;19927;-67
2022/06/10 12:42:42;;;;;;;;;;;20.60;99.90;;;;;;5111747;28;19919;-67
2022/06/10 12:45:15;;;;;;;;;;;20.60;99.90;;;;;;5111837;28;19924;-67
2022/06/10 12:47:41;;;;;;;;;;;20.60;99.90;;;;;;5112031;28;19973;-67
2022/06/10 12:50:24;;;;;;;;;;;20.60;99.90;;;;;;5111634;28;19919;-67
2022/06/10 12:52:55;;;;;;;;;;;20.70;99.90;;;;;;5110424;28;19920;-67
2022/06/10 12:55:24;;;;;;;;;;;20.70;99.90;;;;;;5112016;28;19928;-67
2022/06/10 12:57:50;;;;;;;;;;;20.80;99.90;;;;;;5111744;28;20272;-67
2022/06/10 13:00:18;;;;;;;;;;;20.90;99.90;;;;;;5111366;28;19969;-68
2022/06/10 13:02:44;;;;;;;;;;;20.90;99.90;;;;;;5111671;28;20295;-67
2022/06/10 13:05:19;;;;;;;;;;;21.00;99.90;;;;;;5111612;28;20406;-67
2022/06/10 13:07:47;;;;;;;;;;;21.00;99.90;;;;;;5111798;28;20010;-67
2022/06/10 13:10:28;;;;;;;;;;;21.10;99.90;;;;;;5111703;28;19973;-67
2022/06/10 13:12:57;;;;;;;;;;;21.10;99.90;;;;;;5111602;28;19931;-67
2022/06/10 13:15:24;;;;;;;;;;;21.10;99.90;;;;;;5110333;28;19919;-67
2022/06/10 13:18:10;;;;;;;;;;;21.10;99.90;;;;;;5111619;28;19966;-67
2022/06/10 13:20:39;;;;;;;;;;;21.10;99.90;;;;;;5096745;28;20021;-67
2022/06/10 13:23:33;;;;;;;;;;;21.10;99.90;;;;;;5111615;28;19920;-67
2022/06/10 13:26:04;;;;;;;;;;;21.00;99.90;;;;;;5028352;28;20389;-66
2022/06/10 13:28:35;;;;;;;;;;;21.10;99.90;;;;;;5028235;28;20404;-66
2022/06/10 13:31:03;;;;;;;;;;;21.20;99.90;;;;;;5028529;28;20032;-67
2022/06/10 13:33:30;;;;;;;;;;;21.30;99.90;;;;;;5014574;28;19921;-66
2022/06/10 13:35:56;;;;;;;;;;;21.30;99.90;;;;;;5032386;28;19931;-66
2022/06/10 13:38:22;;;;;;;;;;;21.30;99.90;;;;;;5015900;28;19925;-67
2022/06/10 13:40:49;;;;;;;;;;;21.40;99.90;;;;;;5015887;28;19921;-67
2022/06/10 13:43:31;;;;;;;;;;;21.40;99.90;;;;;;5032227;28;20011;-67
2022/06/10 13:45:57;;;;;;;;;;;21.50;99.90;;;;;;5032219;28;19925;-67
2022/06/10 13:48:24;;;;;;;;;;;21.50;99.90;;;;;;5032077;28;19922;-67
2022/06/10 13:53:30;;;;;;;;;;;21.60;99.90;;;;;;5032023;28;19929;-67
2022/06/10 13:56:00;;;;;;;;;;;21.60;99.90;;;;;;5015588;28;19931;-67
2022/06/10 13:58:26;;;;;;;;;;;21.60;99.90;;;;;;5031638;28;20012;-68
2022/06/10 14:00:57;;;;;;;;;;;21.70;99.90;;;;;;5032098;28;20122;-67
2022/06/10 14:03:34;;;;;;;;;;;21.70;99.90;;;;;;5107492;28;19972;-67
2022/06/10 14:06:06;;;;;;;;;;;21.60;99.90;;;;;;5114701;28;19984;-67
2022/06/10 14:08:36;;;;;;;;;;;21.60;99.90;;;;;;5113257;28;20006;-67
2022/06/10 14:11:31;;;;;;;;;;;21.50;99.90;;;;;;5113521;28;19920;-67
2022/06/10 14:13:59;;;;;;;;;;;21.50;99.90;;;;;;5031438;28;20354;-67
2022/06/10 14:16:25;;;;;;;;;;;21.50;99.90;;;;;;5031646;28;19929;-67
2022/06/10 14:18:52;;;;;;;;;;;21.40;99.90;;;;;;5031280;28;19983;-67
2022/06/10 14:21:18;;;;;;;;;;;21.40;99.90;;;;;;5031491;28;19971;-67
2022/06/10 14:24:02;;;;;;;;;;;21.40;99.90;;;;;;5031365;28;19964;-67
2022/06/10 14:26:28;;;;;;;;;;;21.30;99.90;;;;;;5031410;28;19967;-67
2022/06/10 14:29:07;;;;;;;;;;;21.30;99.90;;;;;;5031073;28;19925;-67
2022/06/10 14:31:35;;;;;;;;;;;21.30;99.90;;;;;;5031662;28;20321;-67
2022/06/10 14:34:01;;;;;;;;;;;21.40;99.90;;;;;;5031267;28;19929;-67
2022/06/10 14:36:31;;;;;;;;;;;21.50;99.90;;;;;;5031097;28;19992;-67
2022/06/10 14:39:09;;;;;;;;;;;21.50;99.90;;;;;;5030950;28;19921;-67
2022/06/10 14:41:49;;;;;;;;;;;21.40;99.90;;;;;;5031275;28;20466;-67
2022/06/10 14:44:14;;;;;;;;;;;21.40;99.90;;;;;;5030746;28;19925;-67
2022/06/10 14:46:40;;;;;;;;;;;21.30;99.90;;;;;;5031197;28;20211;-68
2022/06/10 14:49:25;;;;;;;;;;;21.30;99.90;;;;;;5030866;28;19975;-67
2022/06/10 14:51:51;;;;;;;;;;;21.20;99.90;;;;;;5114173;28;19977;-67
2022/06/10 14:54:19;;;;;;;;;;;21.20;99.90;;;;;;5114161;28;19919;-67